Time;durP1;ratioP1;P1;durP2;ratioP2;P2;SDS_P1;SDS_P2;PMS_P1;PMS_P2;Temp;Humidity;BMP_temperature;BMP_pressure;BME280_temperature;BME280_humidity;BME280_pressure;Samples;Min_cycle;Max_cycle;Signal;HPM_P1;HPM_P2
2022/01/08 00:00:44;;;;;;;8.30;1.73;;;2.60;99.90;;;;;;5008651;28;20410;-71
2022/01/08 00:03:10;;;;;;;4.57;1.43;;;2.60;99.90;;;;;;4999690;28;20299;-72
2022/01/08 00:05:35;;;;;;;3.27;1.00;;;2.60;99.90;;;;;;5010932;28;20041;-70
2022/01/08 00:08:01;;;;;;;3.20;1.83;;;2.60;99.90;;;;;;5009749;28;20053;-72
2022/01/08 00:10:27;;;;;;;2.93;1.00;;;2.50;99.90;;;;;;5010915;28;20041;-71
2022/01/08 00:12:52;;;;;;;5.03;1.60;;;2.50;99.90;;;;;;5011300;28;20537;-71
2022/01/08 00:15:18;;;;;;;2.83;1.03;;;2.40;99.90;;;;;;5015603;28;20037;-71
2022/01/08 00:17:44;;;;;;;2.77;0.90;;;2.40;99.90;;;;;;5017779;28;20054;-71
2022/01/08 00:20:10;;;;;;;3.97;1.00;;;2.40;99.90;;;;;;5013943;28;20025;-72
2022/01/08 00:22:35;;;;;;;8.43;1.27;;;2.40;99.90;;;;;;5016732;28;20057;-72
2022/01/08 00:25:02;;;;;;;3.47;1.20;;;2.40;99.90;;;;;;5009935;28;20045;-70
2022/01/08 00:27:27;;;;;;;7.93;1.88;;;2.40;99.90;;;;;;5015340;28;20033;-70
2022/01/08 00:29:53;;;;;;;5.23;1.00;;;2.40;99.90;;;;;;5009518;28;20487;-71
2022/01/08 00:32:19;;;;;;;5.07;1.40;;;2.40;99.90;;;;;;5003727;28;20034;-69
2022/01/08 00:34:44;;;;;;;3.87;0.90;;;2.40;99.90;;;;;;5031325;23;20488;-65
2022/01/08 00:37:10;;;;;;;4.90;1.40;;;2.40;99.90;;;;;;5026973;28;20039;-67
2022/01/08 00:39:36;;;;;;;2.53;0.80;;;2.40;99.90;;;;;;5020687;28;20340;-66
2022/01/08 00:42:02;;;;;;;5.70;1.40;;;2.40;99.90;;;;;;5022849;28;20037;-67
2022/01/08 00:44:28;;;;;;;6.80;0.90;;;2.40;99.90;;;;;;5025011;28;20040;-68
2022/01/08 00:46:53;;;;;;;3.50;1.33;;;2.40;99.90;;;;;;5025046;28;20045;-68
2022/01/08 00:49:19;;;;;;;7.43;1.77;;;2.40;99.90;;;;;;5020265;28;20106;-67
2022/01/08 00:51:45;;;;;;;4.23;1.10;;;2.40;99.90;;;;;;5020384;28;20064;-68
2022/01/08 00:54:10;;;;;;;2.77;0.90;;;2.40;99.90;;;;;;5019299;28;20099;-67
2022/01/08 00:56:36;;;;;;;2.60;1.10;;;2.30;99.90;;;;;;5018698;28;20054;-65
2022/01/08 00:59:03;;;;;;;8.20;1.73;;;2.30;99.90;;;;;;5024006;28;20168;-65
2022/01/08 01:01:29;;;;;;;3.35;1.40;;;2.40;99.90;;;;;;5025055;28;21117;-65
2022/01/08 01:03:54;;;;;;;2.57;1.33;;;2.30;99.90;;;;;;5025154;28;20235;-65
2022/01/08 01:06:23;;;;;;;4.37;1.17;;;2.40;99.90;;;;;;5022761;28;20654;-66
2022/01/08 01:08:49;;;;;;;9.05;2.45;;;2.40;99.90;;;;;;5022851;28;20107;-65
2022/01/08 01:11:14;;;;;;;5.97;1.60;;;2.40;99.90;;;;;;5026287;28;20045;-66
2022/01/08 01:13:40;;;;;;;3.90;0.73;;;2.40;99.90;;;;;;5023774;28;20048;-65
2022/01/08 01:16:06;;;;;;;7.47;1.30;;;2.40;99.90;;;;;;5022017;28;20125;-65
2022/01/08 01:18:32;;;;;;;3.20;1.13;;;2.50;99.90;;;;;;5018483;28;20453;-64
2022/01/08 01:20:58;;;;;;;3.30;1.25;;;2.50;99.90;;;;;;5026363;28;20056;-67
2022/01/08 01:23:35;;;;;;;4.03;1.10;;;2.60;99.90;;;;;;5024499;28;20045;-66
2022/01/08 01:26:04;;;;;;;15.10;1.67;;;2.60;99.90;;;;;;5016441;28;20034;-66
2022/01/08 01:28:40;;;;;;;3.38;0.80;;;2.70;99.90;;;;;;5022239;28;20045;-66
2022/01/08 01:41:11;;;;;;;3.35;0.70;;;2.70;99.90;;;;;;5023886;28;20065;-66
2022/01/08 01:42:53;;;;;;;5.13;1.15;;;2.50;99.90;;;;;;5020176;28;20042;-67
2022/01/08 01:47:47;;;;;;;2.58;0.40;;;2.50;99.90;;;;;;5025715;28;20049;-67
2022/01/08 01:50:12;;;;;;;2.83;0.30;;;2.40;99.90;;;;;;5003671;28;20289;-67
2022/01/08 01:52:38;;;;;;;2.50;0.50;;;2.40;99.90;;;;;;5022239;28;20107;-67
2022/01/08 01:55:05;;;;;;;1.20;0.30;;;2.40;99.90;;;;;;5024248;28;20497;-66
2022/01/08 01:57:31;;;;;;;1.35;0.40;;;2.40;99.90;;;;;;5018182;28;20159;-68
2022/01/08 01:59:57;;;;;;;2.78;0.40;;;2.40;99.90;;;;;;5023111;28;20041;-66
2022/01/08 02:02:23;;;;;;;1.00;0.40;;;2.40;99.90;;;;;;5027598;28;20124;-67
2022/01/08 02:04:49;;;;;;;1.03;0.40;;;2.40;99.90;;;;;;5018826;28;20041;-68
2022/01/08 02:07:14;;;;;;;1.03;0.30;;;2.30;99.90;;;;;;5021343;28;20075;-66
2022/01/08 02:09:40;;;;;;;0.87;0.33;;;2.40;99.90;;;;;;5017370;28;20371;-68
2022/01/08 02:12:10;;;;;;;1.90;0.30;;;2.30;99.90;;;;;;5016721;28;20398;-67
2022/01/08 02:14:38;;;;;;;3.38;0.43;;;2.30;99.90;;;;;;5022417;28;20283;-65
2022/01/08 02:17:08;;;;;;;1.83;0.30;;;2.20;99.90;;;;;;5022147;28;20082;-65
2022/01/08 02:19:34;;;;;;;2.13;0.30;;;2.30;99.90;;;;;;5023219;28;20110;-65
2022/01/08 02:22:02;;;;;;;4.22;0.60;;;2.30;99.90;;;;;;5026585;28;20483;-66
2022/01/08 02:24:29;;;;;;;4.95;0.90;;;2.20;99.90;;;;;;5025927;28;20034;-66
2022/01/08 02:26:54;;;;;;;5.47;1.40;;;2.30;99.90;;;;;;5024484;28;20163;-66
2022/01/08 02:29:22;;;;;;;1.53;0.50;;;2.30;99.90;;;;;;5028951;28;20183;-65
2022/01/08 02:32:00;;;;;;;3.88;0.70;;;2.40;99.90;;;;;;5031170;28;20045;-66
2022/01/08 02:34:27;;;;;;;4.28;1.15;;;2.50;99.90;;;;;;5020953;28;20508;-66
2022/01/08 02:36:56;;;;;;;3.03;0.70;;;2.50;99.90;;;;;;5013013;28;20072;-66
2022/01/08 02:39:22;;;;;;;2.58;0.40;;;2.50;99.90;;;;;;5027198;28;20090;-66
2022/01/08 02:41:53;;;;;;;1.98;0.40;;;2.50;99.90;;;;;;5033976;28;20701;-66
2022/01/08 02:44:18;;;;;;;2.72;0.45;;;2.60;99.90;;;;;;5013643;28;20160;-66
2022/01/08 02:46:44;;;;;;;3.63;0.33;;;2.50;99.90;;;;;;5013311;28;20038;-65
2022/01/08 02:49:10;;;;;;;3.13;0.50;;;2.60;99.90;;;;;;5024265;28;20092;-65
2022/01/08 02:51:35;;;;;;;4.17;0.50;;;2.60;99.90;;;;;;5025406;28;20041;-67
2022/01/08 02:54:03;;;;;;;1.30;0.40;;;2.60;99.90;;;;;;5026056;28;20037;-66
2022/01/08 02:56:28;;;;;;;4.90;0.50;;;2.60;99.90;;;;;;5025684;28;20099;-67
2022/01/08 02:58:54;;;;;;;3.37;0.47;;;2.60;99.90;;;;;;5025765;28;20493;-66
2022/01/08 03:01:20;;;;;;;7.43;1.63;;;2.60;99.90;;;;;;5029242;28;20037;-67
2022/01/08 03:03:46;;;;;;;2.63;0.47;;;2.50;99.90;;;;;;5024702;28;20262;-66
2022/01/08 03:06:11;;;;;;;1.67;0.63;;;2.50;99.90;;;;;;5015588;28;20299;-66
2022/01/08 03:08:37;;;;;;;3.80;0.80;;;2.50;99.90;;;;;;5023457;28;20076;-67
2022/01/08 03:11:02;;;;;;;2.00;0.47;;;2.50;99.90;;;;;;5027850;28;20049;-66
2022/01/08 03:13:28;;;;;;;2.90;0.70;;;2.50;99.90;;;;;;5027694;28;20029;-66
2022/01/08 03:15:53;;;;;;;4.00;0.57;;;2.50;99.90;;;;;;5027911;28;20096;-66
2022/01/08 03:18:19;;;;;;;6.70;0.67;;;2.50;99.90;;;;;;5023792;28;20037;-67
2022/01/08 03:20:59;;;;;;;2.70;0.43;;;2.50;99.90;;;;;;5027033;28;20072;-67
2022/01/08 03:23:25;;;;;;;2.30;0.60;;;2.40;99.90;;;;;;5024058;28;20042;-66
2022/01/08 03:25:50;;;;;;;7.20;0.90;;;2.40;99.90;;;;;;5026829;28;20045;-66
2022/01/08 03:28:16;;;;;;;4.57;0.60;;;2.30;99.90;;;;;;5030863;28;20182;-67
2022/01/08 03:30:41;;;;;;;5.47;0.60;;;2.30;99.90;;;;;;5023267;28;20037;-67
2022/01/08 03:33:07;;;;;;;3.10;0.57;;;2.30;99.90;;;;;;5026459;28;20504;-67
2022/01/08 03:35:33;;;;;;;6.93;0.50;;;2.30;99.90;;;;;;5025716;28;20455;-66
2022/01/08 03:37:59;;;;;;;2.47;0.40;;;2.30;99.90;;;;;;5024028;28;20030;-66
2022/01/08 03:40:25;;;;;;;4.73;0.60;;;2.20;99.90;;;;;;5020059;28;20038;-66
2022/01/08 03:42:50;;;;;;;7.03;0.80;;;2.20;99.90;;;;;;5025364;28;20561;-67
2022/01/08 03:45:16;;;;;;;5.10;1.13;;;2.20;99.90;;;;;;5027846;28;20064;-66
2022/01/08 03:48:17;;;;;;;3.10;0.60;;;2.20;99.90;;;;;;5023948;28;20040;-68
2022/01/08 03:50:27;;;;;;;4.20;0.80;;;2.20;99.90;;;;;;5021382;28;20045;-68
2022/01/08 03:52:53;;;;;;;1.40;0.63;;;2.30;99.90;;;;;;5025972;28;20502;-68
2022/01/08 03:55:18;;;;;;;7.07;0.97;;;2.30;99.90;;;;;;5024664;28;20056;-69
2022/01/08 03:57:44;;;;;;;2.27;0.70;;;2.30;99.90;;;;;;5019584;28;20072;-68
2022/01/08 04:00:10;;;;;;;5.80;0.83;;;2.30;99.90;;;;;;5023722;28;20070;-67
2022/01/08 04:02:36;;;;;;;2.97;0.80;;;2.40;99.90;;;;;;5017369;28;20056;-68
2022/01/08 04:05:01;;;;;;;5.40;1.23;;;2.40;99.90;;;;;;5023711;28;20115;-66
2022/01/08 04:07:27;;;;;;;4.40;0.70;;;2.40;99.90;;;;;;5027810;28;20037;-68
2022/01/08 04:09:53;;;;;;;2.80;0.60;;;2.40;99.90;;;;;;5019263;28;20132;-68
2022/01/08 04:12:29;;;;;;;3.57;0.67;;;2.40;99.90;;;;;;5018009;28;20120;-68
2022/01/08 04:15:05;;;;;;;7.88;1.08;;;2.40;99.90;;;;;;5025628;28;20052;-68
2022/01/08 04:17:30;;;;;;;6.25;0.95;;;2.50;99.90;;;;;;5021816;28;20053;-68
2022/01/08 04:19:56;;;;;;;1.03;0.53;;;2.40;99.90;;;;;;5037295;28;20033;-68
2022/01/08 04:22:23;;;;;;;4.10;0.70;;;2.40;99.90;;;;;;5020110;28;20133;-68
2022/01/08 04:24:49;;;;;;;2.22;1.00;;;2.40;99.90;;;;;;5022306;28;20111;-68
2022/01/08 04:27:15;;;;;;;2.85;0.68;;;2.40;99.90;;;;;;5027392;28;20037;-67
2022/01/08 04:29:41;;;;;;;2.83;0.50;;;2.40;99.90;;;;;;5019209;28;20140;-68
2022/01/08 04:32:07;;;;;;;8.40;0.70;;;2.40;99.90;;;;;;5025694;28;20270;-68
2022/01/08 04:34:33;;;;;;;4.00;0.50;;;2.40;99.90;;;;;;5028350;28;20400;-66
2022/01/08 04:36:59;;;;;;;5.10;0.43;;;2.40;99.90;;;;;;5022582;28;20042;-67
2022/01/08 04:39:24;;;;;;;0.83;0.47;;;2.40;99.90;;;;;;5016840;28;20609;-67
2022/01/08 04:41:50;;;;;;;5.13;0.63;;;2.40;99.90;;;;;;5023663;28;20121;-67
2022/01/08 04:44:16;;;;;;;4.23;0.80;;;2.40;99.90;;;;;;5026849;28;20253;-68
2022/01/08 04:46:42;;;;;;;3.60;0.43;;;2.50;99.90;;;;;;5026723;28;20041;-68
2022/01/08 04:49:08;;;;;;;2.72;0.85;;;2.50;99.90;;;;;;5017859;28;20393;-67
2022/01/08 04:51:34;;;;;;;;;;;2.50;99.90;;;;;;5018363;28;20063;-67
2022/01/08 04:53:59;;;;;;;3.78;0.60;;;2.50;99.90;;;;;;5028752;28;20012;-67
2022/01/08 04:56:25;;;;;;;3.93;0.50;;;2.50;99.90;;;;;;5023179;28;20041;-67
2022/01/08 04:58:51;;;;;;;4.33;0.57;;;2.50;99.90;;;;;;5018797;28;20487;-67
2022/01/08 05:01:18;;;;;;;6.50;0.70;;;2.50;99.90;;;;;;5023348;28;20408;-68
2022/01/08 05:03:44;;;;;;;7.65;0.68;;;2.50;99.90;;;;;;5026462;28;20045;-68
2022/01/08 05:06:10;;;;;;;2.23;0.57;;;2.50;99.90;;;;;;5025301;28;20052;-68
2022/01/08 05:08:36;;;;;;;6.95;2.30;;;2.50;99.90;;;;;;5019521;28;20041;-68
2022/01/08 05:11:01;;;;;;;2.05;1.15;;;2.40;99.90;;;;;;5021489;28;20041;-68
2022/01/08 05:13:27;;;;;;;1.40;0.63;;;2.40;99.90;;;;;;5023598;28;20048;-68
2022/01/08 05:15:56;;;;;;;3.63;0.80;;;2.40;99.90;;;;;;5012163;28;20280;-68
2022/01/08 05:18:23;;;;;;;3.47;0.80;;;2.30;99.90;;;;;;5017560;28;20044;-68
2022/01/08 05:20:58;;;;;;;2.70;0.60;;;2.30;99.90;;;;;;5025770;28;20045;-68
2022/01/08 05:23:23;;;;;;;5.57;0.77;;;2.20;99.90;;;;;;5019076;28;20150;-68
2022/01/08 05:25:49;;;;;;;6.43;0.70;;;2.20;99.90;;;;;;5020216;28;20099;-68
2022/01/08 05:28:15;;;;;;;4.10;1.10;;;2.20;99.90;;;;;;5019694;28;20529;-68
2022/01/08 05:30:40;;;;;;;2.90;0.80;;;2.10;99.90;;;;;;5023230;28;20049;-68
2022/01/08 05:33:06;;;;;;;3.93;0.77;;;2.10;99.90;;;;;;5020234;28;20037;-68
2022/01/08 05:35:32;;;;;;;3.40;1.00;;;2.10;99.90;;;;;;5015202;28;20052;-68
2022/01/08 05:37:57;;;;;;;4.67;0.93;;;2.00;99.90;;;;;;5020462;28;20086;-68
2022/01/08 05:40:23;;;;;;;3.07;1.00;;;2.00;99.90;;;;;;5019232;28;20045;-68
2022/01/08 05:42:49;;;;;;;7.93;1.50;;;2.00;99.90;;;;;;5021405;28;20657;-68
2022/01/08 05:45:15;;;;;;;4.25;1.20;;;1.90;99.90;;;;;;4999202;28;20111;-68
2022/01/08 05:47:41;;;;;;;8.70;1.23;;;1.90;99.90;;;;;;5020705;28;20433;-68
2022/01/08 05:50:07;;;;;;;4.27;1.20;;;1.90;99.90;;;;;;5009441;28;20133;-68
2022/01/08 05:52:33;;;;;;;7.63;1.23;;;1.90;99.90;;;;;;5003723;28;20511;-68
2022/01/08 05:54:58;;;;;;;3.13;1.40;;;1.90;99.90;;;;;;5021136;28;20048;-68
2022/01/08 05:57:24;;;;;;;6.47;1.27;;;1.80;99.90;;;;;;5021149;28;20042;-69
2022/01/08 05:59:50;;;;;;;8.50;1.63;;;1.80;99.90;;;;;;5018461;28;20038;-68
2022/01/08 06:02:16;;;;;;;4.63;1.70;;;1.80;99.90;;;;;;5021909;28;20452;-68
2022/01/08 06:04:41;;;;;;;5.33;1.43;;;1.80;99.90;;;;;;5021800;28;20041;-68
2022/01/08 06:07:07;;;;;;;11.73;2.00;;;1.80;99.90;;;;;;5022791;28;20132;-68
2022/01/08 06:09:32;;;;;;;5.27;1.73;;;1.80;99.90;;;;;;5024468;28;20478;-68
2022/01/08 06:11:58;;;;;;;5.77;1.90;;;1.70;99.90;;;;;;5020688;28;20498;-68
2022/01/08 06:14:24;;;;;;;3.70;1.60;;;1.70;99.90;;;;;;5022166;28;20041;-68
2022/01/08 06:16:49;;;;;;;7.73;1.70;;;1.70;99.90;;;;;;5019819;28;20042;-68
2022/01/08 06:19:16;;;;;;;7.03;2.10;;;1.70;99.90;;;;;;5021969;28;20037;-68
2022/01/08 06:21:41;;;;;;;4.25;1.65;;;1.70;99.90;;;;;;5025990;28;20107;-68
2022/01/08 06:24:07;;;;;;;9.93;2.60;;;1.70;99.90;;;;;;5022759;28;20052;-69
2022/01/08 06:26:33;;;;;;;6.17;1.60;;;1.70;99.90;;;;;;5024937;28;20899;-68
2022/01/08 06:28:59;;;;;;;10.75;1.73;;;1.60;99.90;;;;;;5012381;28;20045;-68
2022/01/08 06:31:26;;;;;;;3.77;1.40;;;1.60;99.90;;;;;;5009641;28;20053;-68
2022/01/08 06:33:52;;;;;;;3.13;1.35;;;1.60;99.90;;;;;;5020602;28;20163;-68
2022/01/08 06:39:36;;;;;;;8.05;1.45;;;1.50;99.90;;;;;;5014603;28;20103;-80
2022/01/08 06:42:07;;;;;;;7.23;2.53;;;1.50;99.90;;;;;;5006443;28;20034;-79
2022/01/08 06:44:32;;;;;;;4.35;1.50;;;1.50;99.90;;;;;;5027534;28;20029;-81
2022/01/08 06:47:24;;;;;;;10.53;1.60;;;1.50;99.90;;;;;;4991934;28;20041;-81
2022/01/08 06:49:50;;;;;;;8.48;2.70;;;1.50;99.90;;;;;;4991238;28;20053;-81
2022/01/08 06:52:15;;;;;;;9.27;1.77;;;1.50;99.90;;;;;;5002752;28;20038;-81
2022/01/08 06:54:46;;;;;;;9.40;2.30;;;1.50;99.90;;;;;;5008176;28;20037;-81
2022/01/08 06:57:12;;;;;;;5.90;1.67;;;1.50;99.90;;;;;;4999221;28;20044;-81
2022/01/08 07:00:16;;;;;;;7.33;1.83;;;1.60;99.90;;;;;;4996772;28;20393;-80
2022/01/08 07:02:49;;;;;;;4.45;1.60;;;1.50;99.90;;;;;;4998078;28;20042;-81
2022/01/08 07:06:13;;;;;;;5.45;1.80;;;1.50;99.90;;;;;;5001803;28;20486;-81
2022/01/08 07:08:42;;;;;;;5.72;1.48;;;1.50;99.90;;;;;;5002373;28;20097;-80
2022/01/08 07:11:12;;;;;;;3.90;1.63;;;1.50;99.90;;;;;;4987690;28;20062;-80
2022/01/08 07:13:40;;;;;;;6.00;2.25;;;1.40;99.90;;;;;;4988942;28;20089;-80
2022/01/08 07:16:12;;;;;;;5.68;2.10;;;1.40;99.90;;;;;;5010869;28;20030;-81
2022/01/08 07:19:01;;;;;;;9.82;1.95;;;1.50;99.90;;;;;;5008906;28;20073;-80
2022/01/08 07:22:02;;;;;;;4.68;1.42;;;1.40;99.90;;;;;;4990876;28;20080;-81
2022/01/08 07:24:23;;;;;;;7.93;1.92;;;1.40;99.90;;;;;;5004837;28;20041;-79
2022/01/08 07:26:49;;;;;;;7.10;1.50;;;1.40;99.90;;;;;;4995567;28;20045;-81
2022/01/08 07:29:24;;;;;;;6.50;1.83;;;1.30;99.90;;;;;;5023424;28;20503;-81
2022/01/08 07:31:59;;;;;;;5.90;2.40;;;1.30;99.90;;;;;;4992448;28;20095;-81
2022/01/08 07:34:25;;;;;;;10.20;2.22;;;1.30;99.90;;;;;;5004306;28;20093;-81
2022/01/08 07:40:23;;;;;;;6.50;2.00;;;1.30;99.90;;;;;;4994645;28;20034;-82
2022/01/08 07:42:59;;;;;;;5.45;1.90;;;1.30;99.90;;;;;;5008814;28;20049;-81
2022/01/08 07:45:57;;;;;;;16.98;2.58;;;1.30;99.90;;;;;;5011128;28;20034;-80
2022/01/08 07:48:39;;;;;;;6.18;2.35;;;1.30;99.90;;;;;;5001549;28;20033;-79
2022/01/08 07:51:14;;;;;;;4.97;1.83;;;1.30;99.90;;;;;;5009246;28;20033;-82
2022/01/08 07:53:50;;;;;;;11.73;2.47;;;1.30;99.90;;;;;;4991844;28;20038;-81
2022/01/08 07:56:18;;;;;;;7.50;2.05;;;1.30;99.90;;;;;;4985203;28;20058;-81
2022/01/08 07:59:07;;;;;;;9.37;2.43;;;1.30;99.90;;;;;;5003896;28;20100;-81
2022/01/08 08:01:33;;;;;;;7.32;1.92;;;1.40;99.90;;;;;;4991777;28;20048;-81
2022/01/08 08:03:59;;;;;;;8.47;2.30;;;1.40;99.90;;;;;;5007423;28;20030;-81
2022/01/08 08:06:24;;;;;;;5.03;1.83;;;1.30;99.90;;;;;;5005800;28;20680;-81
2022/01/08 08:08:50;;;;;;;6.70;1.90;;;1.40;99.90;;;;;;5005879;28;20050;-81
2022/01/08 08:11:19;;;;;;;6.03;1.70;;;1.40;99.90;;;;;;5011070;28;20488;-82
2022/01/08 08:13:54;;;;;;;8.52;2.00;;;1.30;99.90;;;;;;5008206;28;20050;-81
2022/01/08 08:16:26;;;;;;;7.40;2.40;;;1.40;99.90;;;;;;5010368;28;20030;-81
2022/01/08 08:19:31;;;;;;;5.72;1.92;;;1.40;99.90;;;;;;5007281;28;20033;-81
2022/01/08 08:22:25;;;;;;;6.28;2.03;;;1.40;99.90;;;;;;5007373;28;20088;-81
2022/01/08 08:25:00;;;;;;;5.55;1.65;;;1.60;99.90;;;;;;4990443;28;20038;-81
2022/01/08 08:27:25;;;;;;;15.63;2.28;;;1.60;99.90;;;;;;4984813;28;20050;-81
2022/01/08 08:29:51;;;;;;;13.47;2.40;;;1.60;99.90;;;;;;5000383;28;20049;-81
2022/01/08 08:32:17;;;;;;;4.70;2.33;;;1.60;99.90;;;;;;4988793;28;20041;-81
2022/01/08 08:34:42;;;;;;;5.20;1.73;;;1.60;99.90;;;;;;4986604;28;20049;-82
2022/01/08 08:37:08;;;;;;;8.40;2.27;;;1.70;99.90;;;;;;5006366;28;20030;-81
2022/01/08 08:39:33;;;;;;;4.33;2.00;;;1.70;99.90;;;;;;5006807;28;20041;-81
2022/01/08 08:41:59;;;;;;;10.00;2.70;;;1.80;99.90;;;;;;4987276;28;20891;-83
2022/01/08 08:44:24;;;;;;;5.57;1.93;;;1.80;99.90;;;;;;4990357;28;20040;-82
2022/01/08 08:46:50;;;;;;;6.40;2.27;;;1.90;99.90;;;;;;5003523;28;20084;-82
2022/01/08 08:49:15;;;;;;;8.20;2.53;;;1.90;99.90;;;;;;5005983;28;20991;-85
2022/01/08 08:51:41;;;;;;;7.23;2.60;;;1.90;99.90;;;;;;5005932;28;20034;-81
2022/01/08 08:54:06;;;;;;;7.33;2.20;;;2.00;99.90;;;;;;4991558;28;20401;-81
2022/01/08 08:56:32;;;;;;;8.30;2.80;;;2.00;99.90;;;;;;5004033;28;20042;-81
2022/01/08 08:58:58;;;;;;;10.20;2.60;;;2.10;99.90;;;;;;5002890;28;20038;-82
2022/01/08 09:01:25;;;;;;;5.97;2.17;;;2.10;99.90;;;;;;5006164;28;20038;-82
2022/01/08 09:03:50;;;;;;;10.50;3.05;;;2.20;99.90;;;;;;5011110;28;20404;-83
2022/01/08 09:06:16;;;;;;;11.30;2.47;;;2.20;99.90;;;;;;5009151;28;20029;-82
2022/01/08 09:08:41;;;;;;;6.53;2.50;;;2.20;99.90;;;;;;5009871;28;20068;-82
2022/01/08 09:11:07;;;;;;;5.67;2.17;;;2.20;99.90;;;;;;5006426;28;20049;-83
2022/01/08 09:13:35;;;;;;;10.63;3.00;;;2.20;99.90;;;;;;5013537;28;20077;-83
2022/01/08 09:16:01;;;;;;;11.55;2.55;;;2.20;99.90;;;;;;4996340;28;20041;-82
2022/01/08 09:18:27;;;;;;;6.17;2.43;;;2.30;99.90;;;;;;4990281;28;20026;-83
2022/01/08 09:20:55;;;;;;;8.13;2.10;;;2.30;99.90;;;;;;4998463;28;20113;-83
2022/01/08 09:23:21;;;;;;;8.52;2.88;;;2.30;99.90;;;;;;4996024;28;20113;-82
2022/01/08 09:25:51;;;;;;;11.67;3.53;;;2.40;99.90;;;;;;4994638;28;20080;-82
2022/01/08 09:28:19;;;;;;;13.73;3.13;;;2.40;99.90;;;;;;4997863;28;20066;-82
2022/01/08 09:30:48;;;;;;;9.90;2.60;;;2.40;99.90;;;;;;4996338;28;20056;-83
2022/01/08 09:33:14;;;;;;;7.47;2.53;;;2.50;99.90;;;;;;4997006;28;20317;-82
2022/01/08 09:35:40;;;;;;;8.25;3.30;;;2.50;99.90;;;;;;5012668;28;20120;-82
2022/01/08 09:38:06;;;;;;;10.95;2.72;;;2.50;99.90;;;;;;4992884;28;20122;-83
2022/01/08 09:40:31;;;;;;;8.97;2.70;;;2.60;99.90;;;;;;5014381;28;20041;-82
2022/01/08 09:43:00;;;;;;;10.07;2.77;;;2.70;99.90;;;;;;5003814;28;20097;-83
2022/01/08 09:45:25;;;;;;;6.47;2.70;;;2.70;99.90;;;;;;5023886;28;20080;-81
2022/01/08 09:47:52;;;;;;;7.97;2.73;;;2.80;99.90;;;;;;5013726;28;20488;-82
2022/01/08 09:50:18;;;;;;;;;;;2.80;99.90;;;;;;5012389;28;20049;-82
2022/01/08 09:52:46;;;;;;;9.88;3.92;;;2.80;99.90;;;;;;5007179;28;19913;-83
2022/01/08 09:55:12;;;;;;;11.95;2.38;;;2.90;99.90;;;;;;5025504;23;20045;-66
2022/01/08 09:57:38;;;;;;;8.67;2.57;;;3.00;99.90;;;;;;5032673;28;20041;-66
2022/01/08 10:00:13;;;;;;;12.03;3.10;;;3.00;99.90;;;;;;5027175;28;20082;-66
2022/01/08 10:02:39;;;;;;;6.47;3.15;;;3.10;99.90;;;;;;5023817;28;20041;-65
2022/01/08 10:05:09;;;;;;;10.67;2.10;;;3.10;99.90;;;;;;5022576;28;20038;-66
2022/01/08 10:07:35;;;;;;;11.73;2.72;;;3.20;99.90;;;;;;5023173;28;20393;-66
2022/01/08 10:10:06;;;;;;;8.77;2.95;;;3.20;99.90;;;;;;5038437;28;20048;-66
2022/01/08 10:12:40;;;;;;;10.25;2.83;;;3.20;99.90;;;;;;5020372;28;20049;-65
2022/01/08 10:17:50;;;;;;;7.32;2.22;;;3.30;99.90;;;;;;5018666;28;21671;-66
2022/01/08 10:20:35;;;;;;;12.03;2.87;;;3.30;99.90;;;;;;5031887;28;20075;-65
2022/01/08 10:23:15;;;;;;;6.97;2.83;;;3.30;99.90;;;;;;5024661;28;20037;-65
2022/01/08 10:25:58;;;;;;;11.43;2.47;;;3.40;99.90;;;;;;5015379;28;20041;-65
2022/01/08 10:28:53;;;;;;;9.55;2.70;;;3.40;99.90;;;;;;5022294;28;20034;-66
2022/01/08 10:31:28;;;;;;;10.73;2.47;;;3.40;99.90;;;;;;5021325;28;20501;-66
2022/01/08 10:34:00;;;;;;;9.27;2.58;;;3.40;99.90;;;;;;5025007;28;20037;-66
2022/01/08 10:36:27;;;;;;;8.95;2.42;;;3.40;99.90;;;;;;5025811;28;20440;-65
2022/01/08 10:38:54;;;;;;;13.48;2.90;;;3.40;99.90;;;;;;5023625;28;20037;-66
2022/01/08 10:41:21;;;;;;;11.68;3.35;;;3.40;99.90;;;;;;5023298;28;20497;-66
2022/01/08 10:43:47;;;;;;;9.98;3.08;;;3.50;99.90;;;;;;5020579;28;20041;-65
2022/01/08 10:46:19;;;;;;;13.70;3.63;;;3.50;99.90;;;;;;5026620;28;20445;-65
2022/01/08 10:48:50;;;;;;;11.45;3.20;;;3.50;99.90;;;;;;5026639;28;20042;-66
2022/01/08 10:51:26;;;;;;;15.18;3.72;;;3.50;99.90;;;;;;5037018;28;20042;-66
2022/01/08 10:54:11;;;;;;;6.45;2.90;;;3.50;99.90;;;;;;5036642;28;20030;-65
2022/01/08 10:56:40;;;;;;;10.45;3.40;;;3.50;99.90;;;;;;5031023;28;20072;-65
2022/01/08 10:59:12;;;;;;;6.55;3.10;;;3.60;99.90;;;;;;5028524;28;20120;-65
2022/01/08 11:01:41;;;;;;;9.10;3.08;;;3.60;99.90;;;;;;5033037;28;20215;-66
2022/01/08 11:04:08;;;;;;;12.23;3.88;;;3.60;99.90;;;;;;5027199;28;20049;-65
2022/01/08 11:06:53;;;;;;;9.55;3.20;;;3.60;99.90;;;;;;5026231;28;20073;-66
2022/01/08 11:09:20;;;;;;;11.40;3.88;;;3.60;99.90;;;;;;5023577;28;20312;-66
2022/01/08 11:11:50;;;;;;;9.95;3.30;;;3.60;99.90;;;;;;5027361;28;20060;-65
2022/01/08 11:14:44;;;;;;;11.20;3.53;;;3.60;99.90;;;;;;5030248;28;20033;-66
2022/01/08 11:17:11;;;;;;;7.03;3.30;;;3.60;99.90;;;;;;5024040;28;20042;-66
2022/01/08 11:19:38;;;;;;;8.77;3.08;;;3.70;99.90;;;;;;5017514;28;20044;-66
2022/01/08 11:22:10;;;;;;;9.02;3.42;;;3.70;99.90;;;;;;5026513;28;20070;-66
2022/01/08 11:24:39;;;;;;;11.38;4.25;;;3.70;99.90;;;;;;5019044;28;20096;-66
2022/01/08 11:27:07;;;;;;;7.75;3.33;;;3.70;99.90;;;;;;5023261;28;20044;-66
2022/01/08 11:29:34;;;;;;;8.52;3.58;;;3.80;99.90;;;;;;5019094;28;20083;-66
2022/01/08 11:32:04;;;;;;;16.02;4.07;;;3.90;99.90;;;;;;5015770;28;20127;-66
2022/01/08 11:34:32;;;;;;;8.20;4.07;;;3.90;99.90;;;;;;5024541;28;20482;-66
2022/01/08 11:36:58;;;;;;;7.45;3.10;;;3.90;99.90;;;;;;5023344;28;20072;-66
2022/01/08 11:39:27;;;;;;;11.20;3.92;;;3.90;99.90;;;;;;5026444;28;20041;-66
2022/01/08 11:41:55;;;;;;;9.60;3.67;;;3.90;99.90;;;;;;5026749;28;20398;-66
2022/01/08 11:44:23;;;;;;;14.18;3.42;;;3.90;99.90;;;;;;5026315;28;20107;-65
2022/01/08 11:46:49;;;;;;;10.30;3.45;;;3.90;99.90;;;;;;5023756;28;20042;-66
2022/01/08 11:49:15;;;;;;;14.02;3.90;;;4.00;99.90;;;;;;5020958;28;20080;-65
2022/01/08 11:51:41;;;;;;;8.43;3.47;;;4.00;99.90;;;;;;5029435;28;20099;-66
2022/01/08 11:54:07;;;;;;;12.00;3.37;;;4.00;99.90;;;;;;5019367;28;20030;-66
2022/01/08 11:56:39;;;;;;;12.03;3.37;;;4.00;99.90;;;;;;5034585;28;20068;-66
2022/01/08 11:59:11;;;;;;;10.45;4.10;;;4.00;99.90;;;;;;5019332;28;20065;-66
2022/01/08 12:01:38;;;;;;;8.88;4.03;;;4.10;99.90;;;;;;5028372;28;20406;-66
2022/01/08 12:04:04;;;;;;;9.73;4.40;;;4.10;99.90;;;;;;5024082;28;20049;-65
2022/01/08 12:06:33;;;;;;;13.07;4.07;;;4.10;99.90;;;;;;5020716;28;20084;-65
2022/01/08 12:09:10;;;;;;;8.77;4.10;;;4.10;99.90;;;;;;5019479;28;20056;-66
2022/01/08 12:11:36;;;;;;;22.52;5.05;;;4.20;99.90;;;;;;5021800;28;20567;-65
2022/01/08 12:14:10;;;;;;;7.90;4.63;;;4.10;99.90;;;;;;5024468;28;20165;-66
2022/01/08 12:16:41;;;;;;;18.50;5.82;;;4.20;99.90;;;;;;5024717;28;20111;-65
2022/01/08 12:19:30;;;;;;;13.70;5.32;;;4.20;99.90;;;;;;5027165;28;20511;-66
2022/01/08 12:21:57;;;;;;;10.70;5.07;;;4.20;99.90;;;;;;5021011;28;20045;-66
2022/01/08 12:24:26;;;;;;;15.43;4.90;;;4.20;99.90;;;;;;5024059;28;20041;-66
2022/01/08 12:27:02;;;;;;;12.07;4.90;;;4.20;99.90;;;;;;5022087;28;20044;-65
2022/01/08 12:29:35;;;;;;;16.85;5.88;;;4.20;99.90;;;;;;5025926;28;20045;-66
2022/01/08 12:32:29;;;;;;;10.15;5.15;;;4.10;99.90;;;;;;5024798;28;20370;-66
2022/01/08 12:35:25;;;;;;;13.68;5.65;;;4.20;99.90;;;;;;5023049;28;20406;-65
2022/01/08 12:38:01;;;;;;;12.20;6.03;;;4.10;99.90;;;;;;5076177;23;20052;-69
2022/01/08 12:40:39;;;;;;;12.50;6.38;;;4.10;99.90;;;;;;4998622;28;20042;-69
2022/01/08 12:43:22;;;;;;;13.95;6.32;;;4.10;99.90;;;;;;4989785;28;20052;-69
2022/01/08 12:45:50;;;;;;;13.93;5.90;;;4.10;99.90;;;;;;4995327;28;20045;-69
2022/01/08 12:48:20;;;;;;;14.85;6.75;;;4.10;99.90;;;;;;5000738;28;20061;-69
2022/01/08 12:50:45;;;;;;;9.90;6.30;;;4.10;99.90;;;;;;4999399;28;20038;-69
2022/01/08 12:53:21;;;;;;;11.97;6.63;;;4.10;99.90;;;;;;5000085;28;20390;-69
2022/01/08 12:55:56;;;;;;;11.00;6.03;;;4.20;99.90;;;;;;4997103;28;20083;-69
2022/01/08 12:58:23;;;;;;;14.50;7.75;;;4.10;99.90;;;;;;4994488;28;20045;-69
2022/01/08 13:01:03;;;;;;;11.40;7.10;;;4.10;99.90;;;;;;4998900;28;20158;-69
2022/01/08 13:03:34;;;;;;;14.90;6.95;;;4.10;99.90;;;;;;5003332;28;20045;-69
2022/01/08 13:06:05;;;;;;;15.55;6.68;;;4.10;99.90;;;;;;4991830;28;20052;-69
2022/01/08 13:08:33;;;;;;;12.40;6.55;;;4.10;99.90;;;;;;4991101;28;20049;-69
2022/01/08 13:11:04;;;;;;;13.00;6.78;;;4.00;99.90;;;;;;4985284;28;20049;-69
2022/01/08 13:13:56;;;;;;;13.57;6.90;;;4.10;99.90;;;;;;5007845;28;20072;-69
2022/01/08 13:16:27;;;;;;;14.20;7.57;;;4.00;99.90;;;;;;5000426;28;20385;-69
2022/01/08 13:18:59;;;;;;;15.77;6.68;;;4.00;99.90;;;;;;5003684;28;20033;-69
2022/01/08 13:21:32;;;;;;;11.30;5.78;;;4.00;99.90;;;;;;5000354;28;20085;-69
2022/01/08 13:24:00;;;;;;;12.70;6.80;;;4.10;99.90;;;;;;4997217;28;20459;-68
2022/01/08 13:26:37;;;;;;;13.48;6.72;;;4.00;99.90;;;;;;4995257;28;20059;-69